createdAt,value
2022-09-12T00:18:36.684Z,101670.0
2022-09-12T01:19:21.942Z,101620.0
2022-09-12T01:38:36.699Z,101610.0
2022-09-12T03:37:51.477Z,101540.0
2022-09-12T06:17:51.614Z,101520.0
2022-09-12T06:39:22.055Z,101520.0
2022-09-12T06:58:36.813Z,101510.0
2022-09-12T07:39:22.094Z,101490.0
2022-09-12T08:17:51.599Z,101490.0
2022-09-12T08:59:22.140Z,101500.0
2022-09-12T09:17:51.636Z,101480.0
2022-09-12T09:37:54.495Z,101470.0
2022-09-12T09:57:51.653Z,101450.0
2022-09-12T10:17:51.671Z,101430.0
2022-09-12T10:37:52.337Z,101410.0
2022-09-12T10:57:51.698Z,101390.0
2022-09-12T11:17:51.705Z,101360.0
2022-09-12T11:37:51.708Z,101350.0
2022-09-12T11:57:51.723Z,101360.0
2022-09-12T12:17:51.733Z,101340.0
2022-09-12T12:37:51.744Z,101320.0
2022-09-12T13:17:51.762Z,101280.0
2022-09-12T13:37:51.786Z,101260.0
2022-09-12T13:57:51.780Z,101240.0
2022-09-12T14:17:51.793Z,101210.0
2022-09-12T14:37:51.792Z,101190.0
2022-09-12T14:57:51.818Z,101180.0
2022-09-12T15:17:51.805Z,101160.0
2022-09-12T15:37:51.823Z,101150.0
2022-09-12T15:57:51.825Z,101130.0
2022-09-12T16:17:51.833Z,101100.0
2022-09-12T16:37:51.845Z,101090.0
2022-09-12T16:57:51.849Z,101080.0
2022-09-12T17:17:51.857Z,101080.0
2022-09-12T17:37:51.858Z,101020.0
2022-09-12T17:57:51.861Z,101040.0
2022-09-12T18:17:51.864Z,101030.0
2022-09-12T18:37:51.871Z,101050.0
2022-09-12T18:57:51.886Z,101060.0
2022-09-12T19:17:51.878Z,101060.0
2022-09-12T19:37:51.888Z,101030.0
2022-09-12T20:17:51.890Z,101000.0
2022-09-12T20:37:51.893Z,100990.0
2022-09-12T20:57:51.903Z,100960.0
2022-09-12T23:17:51.953Z,100970.0
